• Join FlightAware (Why Join?)
  • Login
  • US Flag 
12:09PM EDT


 

Airport Tracker/Info


-or-


 

Live Flight TrackerFlight Track Log ✈ USC108 ✈ 08-May-2013 ✈ KJVY - KOSU

Flight Track Log - Related Links

Times and Time Zones

All times are in EDT time to prevent confusion due to time zone crossing. See the USC108 flight status page for this flight to view local times or setup timezone preferences in your user account.

Time Position Orientation Groundspeed Altitude Reporting Facility
EDT Latitude Longitude Course Direction KTS MPH feet Rate Location/Type
12:45AM 38.4308 -85.6462 54° Northeast  Level FlightAware Approximate
12:46AM 38.4633 -85.6225 54° Northeast 135 155 4,500  Level Indianapolis Center
12:47AM 38.4839 -85.5928 49° Northeast 117 135 5,500 960 Climbing Indianapolis Center
12:48AM 38.5019 -85.5606 54° Northeast 113 130 6,500 720 Climbing Indianapolis Center
12:49AM 38.5242 -85.5256 51° Northeast 122 140 7,000 240 Climbing Indianapolis Center
12:50AM 38.5544 -85.4836 47° Northeast 154 177 7,000  Level Indianapolis Center
12:51AM 38.5853 -85.4394 48° Northeast 165 190 7,000  Level Indianapolis Center
12:52AM 38.6147 -85.3953 50° Northeast 163 188 7,000  Level Indianapolis Center
12:53AM 38.6453 -85.3447 52° Northeast 164 189 7,000  Level Indianapolis Center
12:54AM 38.6758 -85.2994 49° Northeast 167 192 7,000  Level Indianapolis Center
12:55AM 38.7058 -85.2553 49° Northeast 166 191 7,000  Level Indianapolis Center
12:56AM 38.7342 -85.2094 52° Northeast 165 190 7,000  Level Indianapolis Center
12:57AM 38.7636 -85.1642 50° Northeast 165 190 7,000  Level Indianapolis Center
12:58AM 38.7944 -85.1175 50° Northeast 170 196 7,000  Level Indianapolis Center
12:59AM 38.8231 -85.0728 51° Northeast 165 190 7,000  Level Indianapolis Center
01:00AM 38.8533 -85.0269 50° Northeast 169 194 7,000  Level Indianapolis Center
01:01AM 38.8828 -84.9822 50° Northeast 167 192 7,000  Level Indianapolis Center
01:02AM 38.9103 -84.9367 52° Northeast 164 189 7,000  Level Indianapolis Center
01:03AM 38.9403 -84.8908 50° Northeast 168 193 7,000  Level Indianapolis Center
01:03AM 38.9667 -84.8667 35° Northeast 165 190 7,000  Level Cincinnati TRACON
01:04AM 38.9833 -84.8167 67° East 165 190 7,000  Level Cincinnati TRACON
01:05AM 39.0167 -84.7833 38° Northeast 164 189 7,000  Level Cincinnati TRACON
01:06AM 39.0333 -84.7333 67° East 163 188 7,000  Level Cincinnati TRACON
01:07AM 39.0667 -84.6833 49° Northeast 168 193 7,000  Level Cincinnati TRACON
01:08AM 39.1000 -84.6500 38° Northeast 165 190 7,000  Level Cincinnati TRACON
01:09AM 39.1167 -84.6000 67° East 156 180 7,000  Level Cincinnati TRACON
01:10AM 39.1436 -84.5758 35° Northeast 161 185 7,000 60 Level Indianapolis Center
01:11AM 39.1689 -84.5331 53° Northeast 162 186 7,100 60 Climbing Indianapolis Center
01:11AM 39.1853 -84.5111 46° Northeast 160 184 7,100 -120 Level Indianapolis Center
01:12AM 39.2011 -84.4844 53° Northeast 162 186 7,000  Descending Indianapolis Center
01:12AM 39.2142 -84.4667 47° Northeast 161 185 7,100  Climbing Indianapolis Center
01:13AM 39.2286 -84.4389 56° Northeast 161 185 7,000  Descending Indianapolis Center
01:13AM 39.2428 -84.4219 43° Northeast 162 186 7,100  Climbing Indianapolis Center
01:14AM 39.2581 -84.3944 54° Northeast 161 185 7,000  Descending Indianapolis Center
01:14AM 39.2694 -84.3769 50° Northeast 159 183 7,100  Climbing Indianapolis Center
01:15AM 39.2867 -84.3506 50° Northeast 159 183 7,000  Descending Indianapolis Center
01:15AM 39.2981 -84.3350 47° Northeast 158 182 7,100  Climbing Indianapolis Center
01:16AM 39.3158 -84.3064 51° Northeast 159 183 7,000  Descending Indianapolis Center
01:16AM 39.3269 -84.2903 48° Northeast 159 183 7,100  Climbing Indianapolis Center
01:17AM 39.3428 -84.2608 55° Northeast 160 184 7,000  Descending Indianapolis Center
01:17AM 39.3536 -84.2453 48° Northeast 161 185 7,100  Climbing Indianapolis Center
01:18AM 39.3711 -84.2150 53° Northeast 161 185 7,000  Descending Indianapolis Center
01:18AM 39.3844 -84.1981 44° Northeast 163 188 7,100  Climbing Indianapolis Center
01:19AM 39.4011 -84.1706 52° Northeast 163 188 7,000  Descending Indianapolis Center
01:19AM 39.4133 -84.1503 52° Northeast 163 188 7,100  Climbing Indianapolis Center
01:20AM 39.4308 -84.1247 48° Northeast 164 189 7,000  Descending Indianapolis Center
01:20AM 39.4422 -84.1056 52° Northeast 164 189 7,100 60 Climbing Indianapolis Center
01:21AM 39.4589 -84.0786 51° Northeast 162 186 7,100  Level Indianapolis Center
01:21AM 39.4708 -84.0606 49° Northeast 164 189 7,100  Level Indianapolis Center
01:22AM 39.4881 -84.0317 52° Northeast 165 190 7,100  Level Indianapolis Center
01:22AM 39.4994 -84.0156 48° Northeast 164 189 7,100  Level Indianapolis Center
01:23AM 39.5169 -83.9853 53° Northeast 164 189 7,100  Level Indianapolis Center
01:23AM 39.5283 -83.9681 49° Northeast 166 191 7,100  Level Indianapolis Center
01:24AM 39.5467 -83.9378 52° Northeast 168 193 7,100  Level Indianapolis Center
01:24AM 39.5569 -83.9228 48° Northeast 167 192 7,100  Level Indianapolis Center
01:25AM 39.5761 -83.8917 51° Northeast 166 191 7,100  Level Indianapolis Center
01:25AM 39.5903 -83.8675 53° Northeast 167 192 7,100  Level Indianapolis Center
01:26AM 39.6061 -83.8447 48° Northeast 166 191 7,100  Level Indianapolis Center
01:26AM 39.6189 -83.8225 53° Northeast 167 192 7,100  Level Indianapolis Center
01:27AM 39.6353 -83.7978 49° Northeast 166 191 7,100  Level Indianapolis Center
01:27AM 39.6497 -83.7750 51° Northeast 165 190 7,100  Level Indianapolis Center
01:28AM 39.6642 -83.7506 52° Northeast 167 192 7,100  Level Indianapolis Center
01:28AM 39.6783 -83.7297 49° Northeast 167 192 7,100  Level Indianapolis Center
01:29AM 39.6931 -83.7031 54° Northeast 165 190 7,100  Level Indianapolis Center
01:29AM 39.7069 -83.6817 50° Northeast 167 192 7,100  Level Indianapolis Center
01:30AM 39.7219 -83.6561 53° Northeast 165 190 7,100 -120 Level Indianapolis Center
01:30AM 39.7381 -83.6314 50° Northeast 167 192 7,000 -420 Descending Indianapolis Center
01:31AM 39.7556 -83.6119 41° Northeast 169 194 6,700 -720 Descending Indianapolis Center
01:31AM 39.7747 -83.5869 45° Northeast 181 208 6,300 -720 Descending Indianapolis Center
01:32AM 39.7869 -83.5603 59° Northeast 178 205 6,000 -900 Descending Indianapolis Center
01:32AM 39.7992 -83.5386 54° Northeast 184 212 5,500 -1,020 Descending Indianapolis Center
01:33AM 39.8158 -83.5067 56° Northeast 181 208 5,000 -900 Descending Indianapolis Center
01:33AM 39.8283 -83.4850 53° Northeast 180 207 4,600 -840 Descending Indianapolis Center
01:34AM 39.8469 -83.4564 50° Northeast 183 211 4,200 -840 Descending Indianapolis Center
01:34AM 39.8633 -83.4350 45° Northeast 186 214 3,800 -840 Descending Indianapolis Center
01:35AM 39.8811 -83.4053 52° Northeast 186 214 3,400 -840 Descending Indianapolis Center
01:35AM 39.8964 -83.3819 50° Northeast 188 216 3,000 -540 Descending Indianapolis Center
01:36AM 39.9142 -83.3519 52° Northeast 188 216 2,900 -120 Descending Indianapolis Center
01:36AM 39.9272 -83.3311 51° Northeast 175 201 2,900  Level Indianapolis Center
01:37AM 39.9458 -83.3047 47° Northeast 180 207 2,900 -120 Level Indianapolis Center
01:37AM 39.9597 -83.2861 46° Northeast 169 194 2,800 -120 Descending Indianapolis Center
01:38AM 39.9781 -83.2578 50° Northeast 175 201 2,800  Level Indianapolis Center
01:40AM 40.0119 -83.1759 62° Northeast  Level FlightAware Approximate
01:47AM 40.0667 -83.0667 37° Northeast  Level FlightAware Approximate
01:48AM 40.0798 -83.0732 37° Northeast  Level Estimated